Time;durP1;ratioP1;P1;durP2;ratioP2;P2;SDS_P1;SDS_P2;PMS_P1;PMS_P2;Temp;Humidity;BMP_temperature;BMP_pressure;BME280_temperature;BME280_humidity;BME280_pressure;Samples;Min_cycle;Max_cycle;Signal;HPM_P1;HPM_P2
2022/03/25 00:01:01;;;;;;;103.43;64.20;;;4.60;99.90;;;;;;5101107;27;20039;-73
2022/03/25 00:03:28;;;;;;;94.33;59.90;;;4.50;99.90;;;;;;5128496;27;20069;-73
2022/03/25 00:05:54;;;;;;;88.20;56.03;;;4.50;99.90;;;;;;5088089;27;20061;-72
2022/03/25 00:08:20;;;;;;;66.83;46.10;;;4.50;99.90;;;;;;5110212;27;20296;-73
2022/03/25 00:10:46;;;;;;;57.73;39.80;;;4.40;99.90;;;;;;5106221;27;20080;-73
2022/03/25 00:13:12;;;;;;;47.80;34.07;;;4.40;99.90;;;;;;5097592;27;20092;-73
2022/03/25 00:15:38;;;;;;;55.60;38.00;;;4.30;99.90;;;;;;5110834;27;20053;-73
2022/03/25 00:18:03;;;;;;;45.37;34.63;;;4.30;99.90;;;;;;5099706;27;20312;-72
2022/03/25 00:20:30;;;;;;;69.87;47.60;;;4.30;99.90;;;;;;5110642;27;20088;-71
2022/03/25 00:22:56;;;;;;;105.73;48.13;;;4.20;99.90;;;;;;5103525;27;20104;-72
2022/03/25 00:25:23;;;;;;;505.93;54.53;;;4.10;99.90;;;;;;5107997;27;20711;-73
2022/03/25 00:27:48;;;;;;;120.03;47.53;;;4.10;99.90;;;;;;5109809;27;21789;-73
2022/03/25 00:30:14;;;;;;;319.63;50.83;;;4.00;99.90;;;;;;5099977;27;20301;-73
2022/03/25 00:32:40;;;;;;;74.77;48.90;;;3.90;99.90;;;;;;5093153;27;20051;-73
2022/03/25 00:35:10;;;;;;;73.60;48.63;;;3.90;99.90;;;;;;5087632;27;20104;-73
2022/03/25 00:37:37;;;;;;;63.60;45.20;;;3.90;99.90;;;;;;5088102;27;20297;-73
2022/03/25 00:40:05;;;;;;;63.80;44.93;;;3.80;99.90;;;;;;5109934;27;20358;-72
2022/03/25 00:42:30;;;;;;;65.40;46.27;;;3.80;99.90;;;;;;5097156;27;20304;-72
2022/03/25 00:44:56;;;;;;;67.80;48.77;;;3.70;99.90;;;;;;5123610;27;20308;-72
2022/03/25 00:47:23;;;;;;;58.23;43.03;;;3.60;99.90;;;;;;5083798;27;20050;-71
2022/03/25 00:49:49;;;;;;;88.37;50.00;;;3.50;99.90;;;;;;5093312;27;20035;-73
2022/03/25 00:52:15;;;;;;;323.47;55.03;;;3.40;99.90;;;;;;5109776;27;20310;-72
2022/03/25 00:54:42;;;;;;;74.90;49.97;;;3.40;99.90;;;;;;5100363;27;20054;-73
2022/03/25 00:57:08;;;;;;;94.70;48.20;;;3.40;99.90;;;;;;5127598;27;20453;-72
2022/03/25 00:59:33;;;;;;;98.10;47.47;;;3.30;99.90;;;;;;5080338;27;20304;-72
2022/03/25 01:02:00;;;;;;;94.97;53.03;;;3.30;99.90;;;;;;5109562;27;20039;-72
2022/03/25 01:04:27;;;;;;;269.83;56.50;;;3.30;99.90;;;;;;5103408;27;20338;-73
2022/03/25 01:06:53;;;;;;;119.53;53.37;;;3.20;99.90;;;;;;5108054;27;20304;-73
2022/03/25 01:09:19;;;;;;;92.63;51.20;;;3.20;99.90;;;;;;5091560;27;20136;-73
2022/03/25 01:11:46;;;;;;;88.87;51.20;;;3.20;99.90;;;;;;5100530;27;20058;-74
2022/03/25 01:14:12;;;;;;;75.43;52.70;;;3.20;99.90;;;;;;5108482;27;20043;-72
2022/03/25 01:16:38;;;;;;;65.07;48.77;;;3.10;99.90;;;;;;5101858;27;20789;-73
2022/03/25 01:19:05;;;;;;;70.30;50.77;;;3.10;99.90;;;;;;5108346;27;20305;-73
2022/03/25 01:21:31;;;;;;;66.73;45.87;;;3.10;99.90;;;;;;5123074;27;20376;-72
2022/03/25 01:23:57;;;;;;;93.17;52.43;;;3.00;99.90;;;;;;5099350;27;20309;-73
2022/03/25 01:26:24;;;;;;;88.40;54.57;;;3.00;99.90;;;;;;5092794;27;20046;-73
2022/03/25 01:28:52;;;;;;;84.67;55.37;;;2.90;99.90;;;;;;5099389;27;20301;-72
2022/03/25 01:31:18;;;;;;;72.90;49.93;;;3.00;99.90;;;;;;5106653;27;20349;-73
2022/03/25 01:33:44;;;;;;;71.77;49.33;;;2.90;99.90;;;;;;5104076;28;20304;-71
2022/03/25 01:36:10;;;;;;;72.60;47.90;;;2.90;99.90;;;;;;5077237;28;20492;-72
2022/03/25 01:38:36;;;;;;;76.27;49.90;;;2.90;99.90;;;;;;5087625;28;20084;-73
2022/03/25 01:41:03;;;;;;;84.93;56.37;;;2.90;99.90;;;;;;5082542;28;20043;-72
2022/03/25 01:43:29;;;;;;;76.47;50.90;;;2.90;99.90;;;;;;5107341;28;20084;-71
2022/03/25 01:45:56;;;;;;;81.33;52.97;;;2.90;99.90;;;;;;5099435;28;20332;-73
2022/03/25 01:48:22;;;;;;;88.10;54.87;;;2.80;99.90;;;;;;5107281;27;20049;-72
2022/03/25 01:50:48;;;;;;;89.20;54.67;;;2.80;99.90;;;;;;5108575;28;20301;-73
2022/03/25 01:53:16;;;;;;;88.73;56.73;;;2.80;99.90;;;;;;5098955;28;20074;-73
2022/03/25 01:55:49;;;;;;;100.47;61.93;;;2.80;99.90;;;;;;5127415;28;20307;-72
2022/03/25 01:58:15;;;;;;;92.07;57.73;;;2.90;99.90;;;;;;5084125;28;20300;-72
2022/03/25 02:00:41;;;;;;;109.30;64.17;;;2.80;99.90;;;;;;5081543;28;20303;-72
2022/03/25 02:03:08;;;;;;;105.23;64.10;;;2.90;99.90;;;;;;5098233;28;20380;-72
2022/03/25 02:05:35;;;;;;;95.83;58.77;;;2.90;99.90;;;;;;5086699;28;20337;-73
2022/03/25 02:08:01;;;;;;;103.20;62.63;;;2.90;99.90;;;;;;5088859;28;20328;-72
2022/03/25 02:10:27;;;;;;;102.10;61.70;;;2.90;99.90;;;;;;5087270;27;20336;-73
2022/03/25 02:12:53;;;;;;;105.77;65.17;;;2.90;99.90;;;;;;5113118;27;20340;-72
2022/03/25 02:15:31;;;;;;;113.30;69.57;;;3.00;99.90;;;;;;5088688;27;20063;-73
2022/03/25 02:18:05;;;;;;;126.73;69.90;;;3.00;99.90;;;;;;5112732;27;20349;-72
2022/03/25 02:20:33;;;;;;;157.63;69.70;;;3.00;99.90;;;;;;5084349;27;20349;-72
2022/03/25 02:23:01;;;;;;;179.23;70.63;;;3.00;99.90;;;;;;5111469;27;20328;-72
2022/03/25 02:25:29;;;;;;;118.10;67.63;;;3.00;99.90;;;;;;5096557;27;20806;-73
2022/03/25 02:27:56;;;;;;;135.57;71.47;;;2.90;99.90;;;;;;5102530;27;20312;-73
2022/03/25 02:30:24;;;;;;;168.23;74.40;;;2.90;99.90;;;;;;5095604;27;20427;-73
2022/03/25 02:32:50;;;;;;;360.67;80.63;;;2.90;99.90;;;;;;5085976;27;20311;-72
2022/03/25 02:35:17;;;;;;;268.93;75.07;;;2.90;99.90;;;;;;5111127;27;20395;-73
2022/03/25 02:37:45;;;;;;;234.00;72.20;;;2.90;99.90;;;;;;5107082;27;20333;-72
2022/03/25 02:40:12;;;;;;;171.30;71.23;;;2.90;99.90;;;;;;5091362;27;20475;-73
2022/03/25 02:42:38;;;;;;;326.90;73.77;;;3.00;99.90;;;;;;5094875;27;20500;-72
2022/03/25 02:45:06;;;;;;;1018.80;102.77;;;3.00;99.90;;;;;;5084529;27;20817;-72
2022/03/25 02:47:32;;;;;;;181.60;74.00;;;3.00;99.90;;;;;;5096836;27;20684;-73
2022/03/25 02:49:58;;;;;;;334.87;78.43;;;3.00;99.90;;;;;;5123849;27;20393;-73
2022/03/25 02:52:23;;;;;;;275.10;78.20;;;3.00;99.90;;;;;;5108508;27;20488;-72
2022/03/25 02:54:49;;;;;;;366.93;77.07;;;3.10;99.90;;;;;;5110735;27;20134;-72
2022/03/25 02:57:16;;;;;;;386.70;75.17;;;3.10;99.90;;;;;;5119125;27;20124;-73
2022/03/25 02:59:42;;;;;;;155.80;72.77;;;3.10;99.90;;;;;;5094153;27;20443;-73
2022/03/25 03:02:08;;;;;;;229.60;72.80;;;3.10;99.90;;;;;;5104807;27;20300;-73
2022/03/25 03:04:34;;;;;;;239.00;69.60;;;3.20;99.90;;;;;;5108240;27;20130;-72
2022/03/25 03:06:59;;;;;;;410.40;78.97;;;3.20;99.90;;;;;;5111359;27;20127;-73
2022/03/25 03:09:25;;;;;;;396.10;81.97;;;3.30;99.90;;;;;;5101910;27;20031;-73
2022/03/25 03:11:51;;;;;;;369.37;79.03;;;3.30;99.90;;;;;;5111513;27;20051;-73
2022/03/25 03:14:20;;;;;;;161.10;73.90;;;3.40;99.90;;;;;;5087049;27;20047;-73
2022/03/25 03:16:46;;;;;;;223.33;76.47;;;3.40;99.90;;;;;;5110203;27;20798;-73
2022/03/25 03:19:12;;;;;;;354.63;79.30;;;3.50;99.90;;;;;;5110816;27;20332;-72
2022/03/25 03:21:38;;;;;;;463.97;80.87;;;3.50;99.90;;;;;;5115083;27;20674;-73
2022/03/25 03:24:04;;;;;;;305.53;74.80;;;3.60;99.90;;;;;;5109670;27;20293;-73
2022/03/25 03:26:30;;;;;;;355.83;72.93;;;3.60;99.90;;;;;;5098249;27;20497;-72
2022/03/25 03:28:56;;;;;;;866.23;87.10;;;3.60;99.90;;;;;;5109465;27;20448;-73
2022/03/25 03:31:23;;;;;;;476.33;71.43;;;3.60;99.90;;;;;;5104502;27;20050;-73
2022/03/25 03:33:49;;;;;;;797.33;82.97;;;3.60;99.90;;;;;;5095798;27;20141;-72
2022/03/25 03:36:14;;;;;;;389.23;70.63;;;3.60;99.90;;;;;;5110506;27;20384;-73
2022/03/25 03:38:40;;;;;;;808.40;80.53;;;3.60;99.90;;;;;;5103570;27;20580;-73
2022/03/25 03:41:06;;;;;;;607.10;73.07;;;3.60;99.90;;;;;;5111294;27;20576;-73
2022/03/25 03:43:31;;;;;;;222.30;66.20;;;3.50;99.90;;;;;;5101906;27;20569;-73
2022/03/25 03:45:57;;;;;;;400.50;70.80;;;3.50;99.90;;;;;;5109327;27;20055;-73
2022/03/25 03:48:24;;;;;;;439.10;70.17;;;3.60;99.90;;;;;;5111055;27;20552;-72
2022/03/25 03:50:50;;;;;;;343.10;71.40;;;3.60;99.90;;;;;;5111279;27;20445;-73
2022/03/25 03:53:16;;;;;;;273.90;63.63;;;3.60;99.90;;;;;;5110703;27;20300;-73
2022/03/25 03:55:41;;;;;;;490.10;72.83;;;3.60;99.90;;;;;;5109340;27;20053;-73
2022/03/25 03:58:07;;;;;;;507.67;70.67;;;3.60;99.90;;;;;;5110948;27;20535;-72
2022/03/25 04:00:33;;;;;;;299.33;62.90;;;3.60;99.90;;;;;;5109926;27;20048;-73
2022/03/25 04:02:58;;;;;;;627.87;68.90;;;3.60;99.90;;;;;;5105416;27;20132;-72
2022/03/25 04:05:26;;;;;;;181.17;60.63;;;3.60;99.90;;;;;;5113492;27;20127;-72
2022/03/25 04:07:51;;;;;;;339.70;66.73;;;3.60;99.90;;;;;;5133798;27;20046;-72
2022/03/25 04:10:18;;;;;;;413.13;66.87;;;3.60;99.90;;;;;;5088643;27;20309;-73
2022/03/25 04:12:45;;;;;;;537.77;69.77;;;3.60;99.90;;;;;;5100385;27;20058;-73
2022/03/25 04:15:12;;;;;;;388.57;67.40;;;3.60;99.90;;;;;;5114568;27;20306;-73
2022/03/25 04:17:38;;;;;;;606.83;69.90;;;3.60;99.90;;;;;;5095473;27;20301;-73
2022/03/25 04:20:05;;;;;;;467.33;65.27;;;3.60;99.90;;;;;;5132876;27;20311;-73
2022/03/25 04:22:32;;;;;;;452.77;65.53;;;3.60;99.90;;;;;;5110845;27;20299;-73
2022/03/25 04:24:58;;;;;;;493.60;66.90;;;3.50;99.90;;;;;;5100664;28;20304;-73
2022/03/25 04:27:24;;;;;;;414.37;60.90;;;3.50;99.90;;;;;;5104799;28;20301;-73
2022/03/25 04:29:50;;;;;;;344.90;57.10;;;3.50;99.90;;;;;;5108026;27;20541;-73
2022/03/25 04:32:16;;;;;;;362.50;56.37;;;3.50;99.90;;;;;;5112020;27;20054;-74
2022/03/25 04:34:42;;;;;;;163.43;50.93;;;3.50;99.90;;;;;;5103612;27;20383;-73
2022/03/25 04:37:09;;;;;;;188.27;50.23;;;3.50;99.90;;;;;;5097014;28;20852;-73
2022/03/25 04:39:37;;;;;;;157.43;52.57;;;3.50;99.90;;;;;;5113818;27;20092;-73
2022/03/25 04:42:03;;;;;;;173.17;55.50;;;3.40;99.90;;;;;;5104825;27;20336;-73
2022/03/25 04:44:29;;;;;;;156.50;53.47;;;3.40;99.90;;;;;;5097430;28;20309;-73
2022/03/25 04:46:56;;;;;;;122.93;58.13;;;3.40;99.90;;;;;;5102718;28;20293;-73
2022/03/25 04:49:23;;;;;;;268.53;61.27;;;3.40;99.90;;;;;;5107067;27;20050;-73
2022/03/25 04:51:49;;;;;;;242.67;57.83;;;3.40;99.90;;;;;;5099781;28;20301;-73
2022/03/25 04:54:14;;;;;;;186.97;56.53;;;3.40;99.90;;;;;;5102806;27;20566;-73
2022/03/25 04:56:42;;;;;;;102.23;53.27;;;3.30;99.90;;;;;;5108591;27;20335;-73
2022/03/25 04:59:08;;;;;;;168.07;50.33;;;3.30;99.90;;;;;;5115778;27;20044;-73
2022/03/25 05:01:34;;;;;;;213.03;60.47;;;3.20;99.90;;;;;;5111290;27;20442;-73
2022/03/25 05:04:00;;;;;;;240.80;59.43;;;3.20;99.90;;;;;;5108659;27;20383;-73
2022/03/25 05:06:26;;;;;;;138.47;56.07;;;3.10;99.90;;;;;;5106964;27;20100;-73
2022/03/25 05:08:51;;;;;;;217.17;58.73;;;3.00;99.90;;;;;;5105460;27;20046;-73
2022/03/25 05:11:17;;;;;;;84.67;51.37;;;3.00;99.90;;;;;;5107564;27;20104;-73
2022/03/25 05:13:44;;;;;;;121.70;49.10;;;2.90;99.90;;;;;;5110996;27;20420;-73
2022/03/25 05:16:10;;;;;;;128.03;50.73;;;2.90;99.90;;;;;;5109704;27;20051;-73
2022/03/25 05:18:38;;;;;;;105.23;44.77;;;2.80;99.90;;;;;;5118022;27;20308;-73
2022/03/25 05:21:05;;;;;;;140.83;44.93;;;2.80;99.90;;;;;;5089719;27;20039;-73
2022/03/25 05:23:31;;;;;;;49.57;36.17;;;2.70;99.90;;;;;;5099575;28;20366;-74
2022/03/25 05:25:56;;;;;;;48.47;35.33;;;2.60;99.90;;;;;;5125676;27;20297;-73
2022/03/25 05:28:22;;;;;;;60.43;39.57;;;2.50;99.90;;;;;;5094410;28;20047;-73
2022/03/25 05:30:49;;;;;;;55.93;37.90;;;2.40;99.90;;;;;;5106164;27;20039;-74
2022/03/25 05:33:15;;;;;;;50.73;35.87;;;2.40;99.90;;;;;;5129349;27;20070;-73
2022/03/25 05:35:41;;;;;;;52.93;38.17;;;2.30;99.90;;;;;;5094150;28;20333;-73
2022/03/25 05:38:07;;;;;;;47.47;35.27;;;2.30;99.90;;;;;;5110851;27;20076;-75
2022/03/25 05:40:33;;;;;;;49.50;36.27;;;2.20;99.90;;;;;;5107152;27;20043;-75
2022/03/25 05:42:59;;;;;;;50.90;38.03;;;2.20;99.90;;;;;;5104332;28;20292;-74
2022/03/25 05:45:26;;;;;;;51.40;36.13;;;2.20;99.90;;;;;;5100499;27;20096;-74
2022/03/25 05:47:53;;;;;;;50.73;36.93;;;2.20;99.90;;;;;;5080265;28;20050;-75
2022/03/25 05:50:19;;;;;;;54.97;38.83;;;2.20;99.90;;;;;;5101258;28;20311;-74
2022/03/25 05:52:45;;;;;;;51.93;37.70;;;2.20;99.90;;;;;;5100219;28;20321;-74
2022/03/25 05:55:13;;;;;;;47.43;34.83;;;2.20;99.90;;;;;;5110071;28;20870;-75
2022/03/25 05:57:39;;;;;;;44.20;33.33;;;2.20;99.90;;;;;;5104089;28;20088;-74
2022/03/25 06:00:08;;;;;;;52.13;35.97;;;2.20;99.90;;;;;;5089065;28;20308;-75
2022/03/25 06:02:41;;;;;;;46.03;33.73;;;2.30;99.90;;;;;;5110460;28;20349;-75
2022/03/25 06:05:08;;;;;;;47.53;34.60;;;2.30;99.90;;;;;;5103686;28;20304;-74
2022/03/25 06:07:35;;;;;;;52.67;36.93;;;2.40;99.90;;;;;;5103540;28;20305;-74
2022/03/25 06:10:01;;;;;;;56.10;39.07;;;2.50;99.90;;;;;;5113773;28;20303;-75
2022/03/25 06:12:27;;;;;;;59.30;39.97;;;2.60;99.90;;;;;;5106357;28;20288;-74
2022/03/25 06:14:53;;;;;;;60.23;38.23;;;2.70;99.90;;;;;;5100105;28;20040;-75
2022/03/25 06:17:19;;;;;;;50.20;36.40;;;2.80;99.90;;;;;;5111293;28;20361;-74
2022/03/25 06:19:45;;;;;;;47.83;34.50;;;3.00;99.90;;;;;;5103306;28;20648;-74
2022/03/25 06:22:12;;;;;;;51.07;36.77;;;3.20;99.90;;;;;;5101283;28;20114;-75
2022/03/25 06:24:37;;;;;;;50.37;35.87;;;3.30;99.90;;;;;;5094863;28;20086;-74
2022/03/25 06:27:04;;;;;;;51.20;35.67;;;3.40;99.90;;;;;;5097203;28;20321;-75
2022/03/25 06:29:30;;;;;;;49.47;34.77;;;3.50;99.90;;;;;;5106680;28;20043;-75
2022/03/25 06:31:56;;;;;;;53.57;37.07;;;3.60;99.90;;;;;;5083122;28;20350;-75
2022/03/25 06:34:23;;;;;;;48.03;35.77;;;3.70;99.90;;;;;;5109496;28;20308;-75
2022/03/25 06:36:49;;;;;;;49.27;35.20;;;3.80;99.90;;;;;;5108889;28;20039;-75
2022/03/25 06:39:16;;;;;;;51.73;35.20;;;4.00;99.90;;;;;;5103731;28;20297;-75
2022/03/25 06:41:42;;;;;;;51.67;35.07;;;4.30;99.90;;;;;;5089619;28;20376;-75
2022/03/25 06:44:08;;;;;;;48.23;35.20;;;4.40;99.90;;;;;;5099981;28;20312;-75
2022/03/25 06:46:35;;;;;;;45.13;33.10;;;4.50;99.90;;;;;;5107594;28;20659;-75
2022/03/25 06:49:01;;;;;;;54.17;37.03;;;4.60;99.90;;;;;;5086060;28;20039;-75
2022/03/25 06:51:27;;;;;;;62.30;39.67;;;4.60;99.90;;;;;;5104521;28;20296;-74
2022/03/25 06:53:53;;;;;;;55.13;37.57;;;4.60;99.90;;;;;;5101958;28;20294;-75
2022/03/25 06:56:21;;;;;;;62.67;41.67;;;4.60;99.90;;;;;;5081435;27;20288;-75
2022/03/25 06:58:47;;;;;;;66.93;43.77;;;4.70;99.90;;;;;;5112756;27;20301;-74
2022/03/25 07:01:14;;;;;;;58.63;41.20;;;4.80;99.90;;;;;;5111004;28;20849;-75
2022/03/25 07:03:40;;;;;;;64.97;43.53;;;4.90;99.90;;;;;;5096449;27;20393;-75
2022/03/25 07:06:08;;;;;;;70.70;47.40;;;5.20;99.90;;;;;;5104939;27;20304;-75
2022/03/25 07:08:35;;;;;;;75.67;49.00;;;5.80;99.90;;;;;;5104413;27;20330;-75
2022/03/25 07:11:01;;;;;;;72.27;47.07;;;6.60;99.90;;;;;;5101719;27;20712;-75
2022/03/25 07:13:30;;;;;;;67.93;45.77;;;7.60;99.90;;;;;;5087149;27;20039;-75
2022/03/25 07:15:56;;;;;;;66.37;45.13;;;8.10;99.90;;;;;;5105381;27;20527;-76
2022/03/25 07:18:21;;;;;;;64.73;43.93;;;8.40;99.90;;;;;;5104036;27;20053;-76
2022/03/25 07:20:47;;;;;;;64.10;44.63;;;8.70;99.90;;;;;;5107597;27;20039;-76
2022/03/25 07:23:13;;;;;;;67.40;46.67;;;8.80;99.90;;;;;;5096931;27;20036;-76
2022/03/25 07:25:39;;;;;;;68.17;46.93;;;8.90;99.90;;;;;;5110510;27;20039;-75
2022/03/25 07:28:04;;;;;;;66.13;45.80;;;9.10;99.90;;;;;;5104378;27;20039;-77
2022/03/25 07:30:32;;;;;;;73.27;47.10;;;9.30;99.90;;;;;;5106776;27;20043;-76
2022/03/25 07:32:58;;;;;;;62.60;44.70;;;9.90;99.90;;;;;;5104107;27;20134;-76
2022/03/25 07:35:24;;;;;;;61.20;43.77;;;10.50;99.90;;;;;;5107931;27;20039;-76
2022/03/25 07:37:50;;;;;;;60.40;43.83;;;10.80;99.90;;;;;;5104109;27;20150;-76
2022/03/25 07:40:16;;;;;;;59.37;41.47;;;10.80;99.90;;;;;;5097101;27;20518;-77
2022/03/25 07:42:43;;;;;;;59.10;43.20;;;10.80;99.90;;;;;;5101393;27;20039;-76
2022/03/25 07:45:10;;;;;;;60.20;43.97;;;10.70;99.90;;;;;;5081618;27;20055;-76
2022/03/25 07:47:40;;;;;;;61.50;44.57;;;10.60;99.90;;;;;;5103975;27;20061;-76
2022/03/25 07:50:09;;;;;;;61.03;43.73;;;10.80;99.90;;;;;;5087089;27;20073;-77
2022/03/25 07:52:34;;;;;;;60.90;43.77;;;10.90;99.90;;;;;;5095318;27;20047;-76
2022/03/25 07:55:00;;;;;;;59.13;43.30;;;11.10;99.90;;;;;;5110227;27;20107;-76
2022/03/25 07:57:26;;;;;;;60.03;43.47;;;11.20;99.90;;;;;;5101233;27;20047;-76
2022/03/25 07:59:52;;;;;;;60.77;43.30;;;11.20;99.90;;;;;;5106199;27;20074;-78
2022/03/25 08:02:17;;;;;;;57.33;42.33;;;11.20;99.90;;;;;;5101799;27;20053;-76
2022/03/25 08:04:44;;;;;;;57.53;43.03;;;11.10;99.90;;;;;;5104643;27;20039;-76
2022/03/25 08:07:10;;;;;;;61.97;43.07;;;11.00;99.90;;;;;;5114392;27;20058;-77
2022/03/25 08:09:36;;;;;;;58.37;42.03;;;10.90;99.90;;;;;;5106887;27;20043;-76
2022/03/25 08:12:02;;;;;;;58.47;39.93;;;10.90;99.90;;;;;;5106988;27;20051;-77
2022/03/25 08:14:29;;;;;;;57.00;41.23;;;10.80;99.90;;;;;;5108458;27;20064;-76
2022/03/25 08:16:55;;;;;;;59.07;41.80;;;10.70;99.90;;;;;;5095472;27;20102;-76
2022/03/25 08:19:20;;;;;;;59.80;41.10;;;10.60;99.90;;;;;;5110828;27;20098;-77
2022/03/25 08:21:48;;;;;;;56.17;40.50;;;10.70;99.90;;;;;;5093881;27;20128;-76
2022/03/25 08:29:42;;;;;;;54.88;39.15;;;10.90;99.90;;;;;;5112952;27;19919;-74
2022/03/25 08:32:08;;;;;;;50.83;36.87;;;11.10;99.90;;;;;;5094007;27;20138;-77
2022/03/25 08:34:34;;;;;;;54.73;37.87;;;11.20;99.90;;;;;;5112846;27;20517;-77
2022/03/25 08:37:02;;;;;;;58.20;37.73;;;11.40;99.90;;;;;;5114296;27;20118;-76
2022/03/25 08:39:27;;;;;;;53.00;37.10;;;11.80;99.90;;;;;;5099840;27;20127;-77
2022/03/25 08:41:53;;;;;;;54.03;36.87;;;12.00;99.90;;;;;;5107601;27;20447;-76
2022/03/25 08:44:19;;;;;;;53.30;36.90;;;12.30;99.90;;;;;;5111543;27;20084;-76
2022/03/25 08:46:45;;;;;;;51.47;36.60;;;12.70;99.90;;;;;;5108013;27;20043;-76
2022/03/25 08:49:12;;;;;;;49.17;36.57;;;13.20;99.90;;;;;;5108047;27;20122;-76
2022/03/25 08:51:38;;;;;;;51.77;37.40;;;13.80;99.90;;;;;;5111451;27;20051;-77
2022/03/25 08:54:06;;;;;;;46.20;33.93;;;14.30;99.90;;;;;;5108950;27;20400;-77
2022/03/25 08:56:32;;;;;;;46.97;35.40;;;14.90;99.90;;;;;;5110801;27;20040;-77
2022/03/25 08:58:58;;;;;;;47.70;36.63;;;15.20;99.90;;;;;;5106759;27;20469;-76
2022/03/25 09:01:24;;;;;;;46.90;36.13;;;15.40;99.90;;;;;;5128455;27;20636;-81
2022/03/25 09:03:50;;;;;;;46.17;33.50;;;15.50;99.90;;;;;;5093066;27;20106;-76
2022/03/25 09:06:16;;;;;;;44.57;33.30;;;15.60;98.00;;;;;;5110368;27;20102;-75
2022/03/25 09:08:42;;;;;;;47.90;34.00;;;15.40;97.80;;;;;;5108099;27;20027;-80
2022/03/25 09:11:12;;;;;;;44.90;32.17;;;15.40;97.90;;;;;;5124147;27;20096;-76
2022/03/25 09:13:40;;;;;;;45.93;33.10;;;15.40;96.60;;;;;;5090932;27;20044;-75
2022/03/25 09:16:06;;;;;;;46.37;31.37;;;15.40;96.50;;;;;;5113595;27;20043;-78
2022/03/25 09:18:32;;;;;;;50.33;31.37;;;15.60;96.00;;;;;;5108562;27;20084;-76
2022/03/25 09:20:58;;;;;;;45.23;31.37;;;15.80;95.60;;;;;;5105763;27;20059;-78
2022/03/25 09:23:24;;;;;;;41.03;29.50;;;16.10;95.50;;;;;;5106485;27;20051;-76
2022/03/25 09:25:50;;;;;;;47.47;29.20;;;16.50;95.20;;;;;;5110211;27;20039;-76
2022/03/25 09:28:17;;;;;;;40.57;27.37;;;16.80;94.60;;;;;;5111852;27;20077;-75
2022/03/25 09:30:43;;;;;;;43.20;28.83;;;17.40;92.80;;;;;;5109947;27;20051;-78
2022/03/25 09:33:09;;;;;;;45.43;29.57;;;17.70;80.50;;;;;;5112796;27;20126;-80
2022/03/25 09:35:36;;;;;;;39.43;28.30;;;18.20;82.20;;;;;;5114195;27;20612;-77
2022/03/25 09:38:03;;;;;;;40.23;28.83;;;18.70;77.80;;;;;;5096351;27;20040;-77
2022/03/25 09:40:29;;;;;;;44.47;28.10;;;19.30;80.70;;;;;;5111363;27;20712;-77
2022/03/25 09:42:57;;;;;;;41.30;29.17;;;19.70;70.80;;;;;;5117651;28;20454;-78
2022/03/25 09:45:25;;;;;;;37.60;28.73;;;19.90;67.50;;;;;;5105082;27;20043;-79
2022/03/25 09:47:54;;;;;;;37.93;27.97;;;20.30;69.50;;;;;;5095775;27;20142;-78
2022/03/25 09:50:21;;;;;;;35.53;27.23;;;21.00;69.00;;;;;;5090630;27;20039;-78
2022/03/25 09:52:48;;;;;;;40.20;27.20;;;21.60;67.50;;;;;;5110471;27;20035;-81
2022/03/25 09:55:14;;;;;;;32.83;25.57;;;22.30;62.10;;;;;;5110848;28;20047;-82
2022/03/25 09:57:40;;;;;;;36.30;26.43;;;22.60;58.50;;;;;;5115688;28;20450;-82
2022/03/25 10:00:08;;;;;;;37.37;25.30;;;23.00;54.50;;;;;;5112060;28;20043;-79
2022/03/25 10:02:39;;;;;;;36.00;25.37;;;23.40;52.20;;;;;;5112389;28;20051;-81
2022/03/25 10:05:14;;;;;;;34.63;24.83;;;23.50;48.90;;;;;;5112387;28;20138;-79
2022/03/25 10:07:44;;;;;;;31.07;24.13;;;23.90;47.20;;;;;;5088283;28;20139;-80
2022/03/25 10:10:11;;;;;;;37.10;25.13;;;24.40;47.30;;;;;;5102766;28;20035;-78
2022/03/25 10:12:39;;;;;;;33.70;24.27;;;24.90;46.10;;;;;;5115580;28;20045;-78
2022/03/25 10:15:16;;;;;;;34.10;24.63;;;25.50;47.30;;;;;;5085586;28;20047;-82
2022/03/25 10:18:03;;;;;;;32.83;23.77;;;26.10;45.70;;;;;;5086123;28;20044;-76
2022/03/25 10:20:31;;;;;;;31.83;23.90;;;26.30;43.80;;;;;;5104646;28;20070;-78
2022/03/25 10:22:59;;;;;;;31.45;22.52;;;26.60;39.20;;;;;;5105495;28;20047;-78
2022/03/25 10:25:32;;;;;;;31.07;22.33;;;26.10;36.00;;;;;;5108795;28;20039;-77
2022/03/25 10:27:58;;;;;;;35.45;23.75;;;25.70;39.60;;;;;;5113356;28;20514;-76
2022/03/25 10:30:35;;;;;;;32.33;24.33;;;26.20;39.50;;;;;;5110437;27;20043;-80
2022/03/25 10:33:09;;;;;;;28.77;21.88;;;26.30;38.80;;;;;;5108917;27;20062;-79
2022/03/25 10:35:54;;;;;;;30.42;22.38;;;26.80;40.60;;;;;;5091838;27;20062;-80
2022/03/25 10:38:21;;;;;;;31.70;22.65;;;27.50;39.10;;;;;;5094236;27;20081;-79
2022/03/25 10:40:52;;;;;;;29.58;22.75;;;27.90;36.40;;;;;;5109478;27;20047;-77
2022/03/25 10:43:18;;;;;;;31.63;22.88;;;27.90;37.60;;;;;;5112523;27;20039;-78
2022/03/25 10:45:45;;;;;;;32.03;22.80;;;28.00;38.00;;;;;;5130529;27;20046;-78
2022/03/25 10:48:14;;;;;;;34.70;24.17;;;28.30;37.40;;;;;;5114235;27;20027;-78
2022/03/25 10:50:57;;;;;;;31.48;23.33;;;28.60;35.70;;;;;;5105173;27;20035;-77
2022/03/25 10:53:23;;;;;;;30.75;21.75;;;28.50;32.60;;;;;;5111366;27;20047;-77
2022/03/25 10:55:53;;;;;;;30.60;21.10;;;28.20;36.20;;;;;;5099695;27;20424;-77
2022/03/25 10:58:18;;;;;;;33.38;21.58;;;28.30;36.20;;;;;;5110043;27;20421;-76
2022/03/25 11:00:44;;;;;;;30.25;21.08;;;28.40;36.70;;;;;;5109689;27;20051;-78
2022/03/25 11:03:14;;;;;;;28.98;21.08;;;28.60;35.50;;;;;;5113398;27;20404;-78
2022/03/25 11:05:40;;;;;;;28.40;20.75;;;28.90;36.30;;;;;;5110839;27;20050;-76
2022/03/25 11:08:06;;;;;;;31.35;21.15;;;29.10;36.40;;;;;;5108084;27;20047;-78
2022/03/25 11:10:32;;;;;;;26.35;21.45;;;29.30;35.20;;;;;;5107102;27;20742;-77
2022/03/25 11:13:02;;;;;;;28.67;21.42;;;29.30;33.90;;;;;;5096888;27;20096;-78
2022/03/25 11:15:30;;;;;;;32.00;20.48;;;29.30;32.60;;;;;;5109343;27;20046;-78
2022/03/25 11:17:56;;;;;;;33.50;22.65;;;29.00;33.30;;;;;;5086895;27;20072;-77
2022/03/25 11:20:26;;;;;;;35.80;22.00;;;28.90;32.10;;;;;;5085180;27;20055;-77
2022/03/25 11:22:57;;;;;;;29.55;21.13;;;28.70;33.70;;;;;;5102645;27;20503;-77
2022/03/25 11:25:24;;;;;;;42.67;21.27;;;28.40;34.10;;;;;;5108496;27;20042;-78
2022/03/25 11:27:54;;;;;;;30.80;21.42;;;28.20;32.50;;;;;;5101088;27;20043;-77
2022/03/25 11:30:20;;;;;;;29.85;21.33;;;27.80;33.10;;;;;;5101333;27;20397;-77
2022/03/25 11:32:47;;;;;;;29.52;20.67;;;27.70;34.10;;;;;;5112904;27;20057;-77
2022/03/25 11:35:19;;;;;;;32.78;22.88;;;27.70;33.90;;;;;;5103179;27;20047;-77
2022/03/25 11:37:47;;;;;;;31.52;21.55;;;27.40;32.70;;;;;;5110269;27;20053;-77
2022/03/25 11:40:27;;;;;;;29.45;22.27;;;27.10;34.90;;;;;;5122645;27;20067;-77
2022/03/25 11:42:55;;;;;;;31.35;21.63;;;27.10;35.10;;;;;;5106593;27;20027;-76
2022/03/25 11:45:35;;;;;;;31.92;22.58;;;27.20;33.40;;;;;;5115037;27;20480;-75
2022/03/25 11:48:47;;;;;;;30.17;23.33;;;26.90;33.50;;;;;;5102128;27;20063;-77
2022/03/25 11:51:25;;;;;;;34.63;24.55;;;26.60;36.30;;;;;;5111135;27;20047;-80
2022/03/25 11:53:53;;;;;;;32.47;24.17;;;26.70;36.00;;;;;;5116791;27;20043;-76
2022/03/25 11:56:19;;;;;;;35.22;24.88;;;26.70;35.80;;;;;;5110160;27;20065;-78
2022/03/25 11:58:58;;;;;;;36.05;23.98;;;26.70;36.20;;;;;;5106126;27;20507;-76
2022/03/25 12:01:24;;;;;;;33.67;24.02;;;26.50;34.00;;;;;;5104518;27;20504;-77
2022/03/25 12:03:52;;;;;;;31.42;22.67;;;25.90;35.50;;;;;;5117429;27;20062;-76
2022/03/25 12:06:19;;;;;;;34.78;22.85;;;25.70;36.40;;;;;;5101631;27;20035;-78
2022/03/25 12:08:57;;;;;;;37.77;25.10;;;25.70;37.10;;;;;;5096456;27;20142;-78
2022/03/25 12:11:52;;;;;;;33.63;22.88;;;25.80;36.60;;;;;;5091597;27;21469;-77
2022/03/25 12:14:19;;;;;;;38.53;22.50;;;25.90;36.30;;;;;;5106741;27;20401;-77
2022/03/25 12:16:59;;;;;;;34.40;22.63;;;25.70;36.10;;;;;;5106571;27;20050;-76
2022/03/25 12:19:51;;;;;;;35.78;22.65;;;25.60;36.30;;;;;;5106900;27;20148;-77
2022/03/25 12:22:37;;;;;;;31.63;22.73;;;25.50;35.30;;;;;;5097769;27;20043;-75
2022/03/25 12:25:13;;;;;;;33.60;22.20;;;24.90;36.90;;;;;;5098582;27;20047;-77
2022/03/25 12:27:40;;;;;;;33.13;21.00;;;24.80;37.50;;;;;;5096540;27;20043;-77
2022/03/25 12:30:07;;;;;;;32.13;19.70;;;24.80;38.00;;;;;;5109034;27;20473;-76
2022/03/25 12:32:36;;;;;;;31.70;20.50;;;24.80;37.50;;;;;;5091250;27;20050;-77
2022/03/25 12:35:05;;;;;;;29.47;21.17;;;24.80;37.60;;;;;;5115452;27;20046;-78
2022/03/25 12:37:46;;;;;;;30.17;20.50;;;24.60;37.10;;;;;;5108641;27;20035;-77